sensor_id;sensor_type;location;lat;lon;timestamp;pressure;altitude;pressure_sealevel;temperature;humidity
67818;BME280;54614;47.576;7.524;2022-07-03T00:02:00;98766.91;;;25.18;50.92
67818;BME280;54614;47.576;7.524;2022-07-03T00:04:26;98759.84;;;25.30;50.56
67818;BME280;54614;47.576;7.524;2022-07-03T00:06:54;98766.91;;;25.18;51.11
67818;BME280;54614;47.576;7.524;2022-07-03T00:09:21;98770.22;;;25.27;50.74
67818;BME280;54614;47.576;7.524;2022-07-03T00:11:47;98763.78;;;25.28;50.59
67818;BME280;54614;47.576;7.524;2022-07-03T00:14:13;98763.63;;;25.16;50.76
67818;BME280;54614;47.576;7.524;2022-07-03T00:16:38;98768.75;;;25.31;50.31
67818;BME280;54614;47.576;7.524;2022-07-03T00:19:04;98764.84;;;25.20;50.77
67818;BME280;54614;47.576;7.524;2022-07-03T00:22:03;98765.25;;;25.24;50.74
67818;BME280;54614;47.576;7.524;2022-07-03T00:24:43;98764.22;;;25.18;50.71
67818;BME280;54614;47.576;7.524;2022-07-03T00:27:15;98759.44;;;25.27;50.47
67818;BME280;54614;47.576;7.524;2022-07-03T00:29:43;98765.25;;;25.17;50.68
67818;BME280;54614;47.576;7.524;2022-07-03T00:32:22;98754.91;;;25.14;50.73
67818;BME280;54614;47.576;7.524;2022-07-03T00:34:52;98768.16;;;25.16;50.77
67818;BME280;54614;47.576;7.524;2022-07-03T00:37:18;98761.34;;;25.13;50.88
67818;BME280;54614;47.576;7.524;2022-07-03T00:39:45;98770.03;;;25.09;50.69
67818;BME280;54614;47.576;7.524;2022-07-03T00:42:12;98772.97;;;25.00;50.84
67818;BME280;54614;47.576;7.524;2022-07-03T00:44:49;98770.88;;;25.02;50.98
67818;BME280;54614;47.576;7.524;2022-07-03T00:47:19;98776.88;;;25.04;51.18
67818;BME280;54614;47.576;7.524;2022-07-03T00:49:54;98773.34;;;25.11;50.77
67818;BME280;54614;47.576;7.524;2022-07-03T00:52:22;98773.16;;;25.05;50.76
67818;BME280;54614;47.576;7.524;2022-07-03T00:54:53;98775.03;;;25.05;50.88
67818;BME280;54614;47.576;7.524;2022-07-03T00:57:22;98763.44;;;24.98;51.33
67818;BME280;54614;47.576;7.524;2022-07-03T00:59:48;98771.91;;;25.08;50.80
67818;BME280;54614;47.576;7.524;2022-07-03T01:05:15;98779.38;;;24.99;51.09
67818;BME280;54614;47.576;7.524;2022-07-03T01:11:51;98776.25;;;24.89;51.02
67818;BME280;54614;47.576;7.524;2022-07-03T01:14:41;98776.66;;;24.93;50.97
67818;BME280;54614;47.576;7.524;2022-07-03T01:17:30;98773.78;;;24.88;51.31
67818;BME280;54614;47.576;7.524;2022-07-03T01:20:05;98784.13;;;24.84;51.26
67818;BME280;54614;47.576;7.524;2022-07-03T01:22:43;98779.56;;;24.91;50.92
67818;BME280;54614;47.576;7.524;2022-07-03T01:28:11;98772.94;;;24.94;50.95
67818;BME280;54614;47.576;7.524;2022-07-03T01:30:57;98769.22;;;24.88;51.04
67818;BME280;54614;47.576;7.524;2022-07-03T01:33:31;98772.94;;;24.94;51.01
67818;BME280;54614;47.576;7.524;2022-07-03T01:36:07;98778.53;;;24.86;51.17
67818;BME280;54614;47.576;7.524;2022-07-03T01:38:36;98764.47;;;24.90;51.24
67818;BME280;54614;47.576;7.524;2022-07-03T01:41:06;98772.53;;;24.84;51.13
67818;BME280;54614;47.576;7.524;2022-07-03T01:43:38;98776.28;;;24.83;51.45
67818;BME280;54614;47.576;7.524;2022-07-03T01:46:04;98766.13;;;24.85;50.94
67818;BME280;54614;47.576;7.524;2022-07-03T01:48:32;98769.44;;;24.93;50.95
67818;BME280;54614;47.576;7.524;2022-07-03T01:51:00;98771.09;;;24.88;51.00
67818;BME280;54614;47.576;7.524;2022-07-03T01:53:30;98767.16;;;24.84;51.21
67818;BME280;54614;47.576;7.524;2022-07-03T01:55:59;98768.41;;;24.88;50.97
67818;BME280;54614;47.576;7.524;2022-07-03T01:58:25;98768.81;;;24.85;51.07
67818;BME280;54614;47.576;7.524;2022-07-03T02:07:10;98777.72;;;24.85;50.98
67818;BME280;54614;47.576;7.524;2022-07-03T02:09:47;98767.38;;;24.89;50.65
67818;BME280;54614;47.576;7.524;2022-07-03T02:12:18;98769.44;;;24.87;50.98
67818;BME280;54614;47.576;7.524;2022-07-03T02:15:08;98770.88;;;24.89;51.03
67818;BME280;54614;47.576;7.524;2022-07-03T02:17:47;98772.53;;;24.84;51.15
67818;BME280;54614;47.576;7.524;2022-07-03T02:20:16;98766.53;;;24.88;50.78
67818;BME280;54614;47.576;7.524;2022-07-03T02:23:13;98763.66;;;24.83;51.21
67818;BME280;54614;47.576;7.524;2022-07-03T02:25:44;98772.97;;;24.81;51.02
67818;BME280;54614;47.576;7.524;2022-07-03T02:28:24;98764.88;;;24.81;51.15
67818;BME280;54614;47.576;7.524;2022-07-03T02:30:59;98771.50;;;24.78;51.21
67818;BME280;54614;47.576;7.524;2022-07-03T02:33:31;98761.78;;;24.77;51.02
67818;BME280;54614;47.576;7.524;2022-07-03T02:35:59;98769.84;;;24.77;51.17
67818;BME280;54614;47.576;7.524;2022-07-03T02:38:26;98776.88;;;24.78;50.95
67818;BME280;54614;47.576;7.524;2022-07-03T02:41:17;98776.88;;;24.78;50.92
67818;BME280;54614;47.576;7.524;2022-07-03T02:44:14;98769.84;;;24.77;51.20
67818;BME280;54614;47.576;7.524;2022-07-03T02:47:20;98775.25;;;24.77;51.11
67818;BME280;54614;47.576;7.524;2022-07-03T02:50:05;98785.59;;;24.80;51.20
67818;BME280;54614;47.576;7.524;2022-07-03T02:55:43;98795.72;;;24.78;50.97
67818;BME280;54614;47.576;7.524;2022-07-03T02:58:39;98798.84;;;24.75;51.15
67818;BME280;54614;47.576;7.524;2022-07-03T03:01:25;98804.63;;;24.79;51.05
67818;BME280;54614;47.576;7.524;2022-07-03T03:04:22;98799.25;;;24.79;50.96
67818;BME280;54614;47.576;7.524;2022-07-03T03:07:08;98802.13;;;24.77;51.04
67818;BME280;54614;47.576;7.524;2022-07-03T03:09:45;98803.78;;;24.85;50.50
67818;BME280;54614;47.576;7.524;2022-07-03T03:12:14;98801.72;;;24.80;50.65
67818;BME280;54614;47.576;7.524;2022-07-03T03:14:48;98806.69;;;24.77;51.06
67818;BME280;54614;47.576;7.524;2022-07-03T03:17:19;98804.63;;;24.85;50.71
67818;BME280;54614;47.576;7.524;2022-07-03T03:19:55;98806.06;;;24.81;50.71
67818;BME280;54614;47.576;7.524;2022-07-03T03:25:26;98818.69;;;24.81;50.64
67818;BME280;54614;47.576;7.524;2022-07-03T03:27:52;98815.59;;;24.77;50.65
67818;BME280;54614;47.576;7.524;2022-07-03T03:30:19;98811.44;;;24.74;51.06
67818;BME280;54614;47.576;7.524;2022-07-03T03:32:45;98818.69;;;24.74;50.99
67818;BME280;54614;47.576;7.524;2022-07-03T03:35:11;98816.00;;;24.74;50.79
67818;BME280;54614;47.576;7.524;2022-07-03T03:37:37;98818.69;;;24.74;50.62
67818;BME280;54614;47.576;7.524;2022-07-03T03:40:05;98820.34;;;24.75;50.81
67818;BME280;54614;47.576;7.524;2022-07-03T03:42:31;98814.56;;;24.71;50.73
67818;BME280;54614;47.576;7.524;2022-07-03T03:44:57;98823.25;;;24.73;50.70
67818;BME280;54614;47.576;7.524;2022-07-03T03:47:23;98810.41;;;24.75;50.67
67818;BME280;54614;47.576;7.524;2022-07-03T03:49:49;98819.94;;;24.85;50.49
67818;BME280;54614;47.576;7.524;2022-07-03T03:52:16;98818.69;;;24.81;50.66
67818;BME280;54614;47.576;7.524;2022-07-03T03:54:42;98819.53;;;24.74;50.80
67818;BME280;54614;47.576;7.524;2022-07-03T03:57:20;98819.53;;;24.74;50.49
67818;BME280;54614;47.576;7.524;2022-07-03T03:59:47;98819.31;;;24.83;50.48
67818;BME280;54614;47.576;7.524;2022-07-03T04:02:14;98816.63;;;24.76;50.46
67818;BME280;54614;47.576;7.524;2022-07-03T04:04:40;98817.88;;;24.73;50.96
67818;BME280;54614;47.576;7.524;2022-07-03T04:07:07;98821.81;;;24.71;50.74
67818;BME280;54614;47.576;7.524;2022-07-03T04:09:33;98819.94;;;24.71;50.71
67818;BME280;54614;47.576;7.524;2022-07-03T04:11:59;98815.59;;;24.70;50.65
67818;BME280;54614;47.576;7.524;2022-07-03T04:14:25;98822.41;;;24.73;50.74
67818;BME280;54614;47.576;7.524;2022-07-03T04:16:51;98824.50;;;24.71;50.89
67818;BME280;54614;47.576;7.524;2022-07-03T04:19:17;98824.50;;;24.71;50.91
67818;BME280;54614;47.576;7.524;2022-07-03T04:21:43;98831.94;;;24.69;50.89
67818;BME280;54614;47.576;7.524;2022-07-03T04:24:09;98825.72;;;24.68;51.07
67818;BME280;54614;47.576;7.524;2022-07-03T04:26:35;98830.91;;;24.70;50.77
67818;BME280;54614;47.576;7.524;2022-07-03T04:29:01;98829.47;;;24.67;51.00
67818;BME280;54614;47.576;7.524;2022-07-03T04:31:27;98828.22;;;24.70;50.70
67818;BME280;54614;47.576;7.524;2022-07-03T04:33:53;98828.41;;;24.68;50.91
67818;BME280;54614;47.576;7.524;2022-07-03T04:36:18;98831.13;;;24.68;50.84
67818;BME280;54614;47.576;7.524;2022-07-03T04:38:44;98823.88;;;24.69;50.74
67818;BME280;54614;47.576;7.524;2022-07-03T04:41:10;98835.25;;;24.71;50.90
67818;BME280;54614;47.576;7.524;2022-07-03T04:43:36;98836.28;;;24.70;50.85
67818;BME280;54614;47.576;7.524;2022-07-03T04:46:03;98837.31;;;24.69;51.00
67818;BME280;54614;47.576;7.524;2022-07-03T04:48:30;98834.00;;;24.67;51.24
67818;BME280;54614;47.576;7.524;2022-07-03T04:50:56;98835.66;;;24.68;50.89
67818;BME280;54614;47.576;7.524;2022-07-03T04:53:22;98839.19;;;24.68;50.93
67818;BME280;54614;47.576;7.524;2022-07-03T04:55:48;98838.16;;;24.69;50.94
67818;BME280;54614;47.576;7.524;2022-07-03T04:58:14;98834.22;;;24.72;51.08
67818;BME280;54614;47.576;7.524;2022-07-03T05:00:41;98840.84;;;24.76;50.97
67818;BME280;54614;47.576;7.524;2022-07-03T05:03:08;98846.22;;;24.76;50.96
67818;BME280;54614;47.576;7.524;2022-07-03T05:05:33;98846.63;;;24.80;50.59
67818;BME280;54614;47.576;7.524;2022-07-03T05:08:00;98844.78;;;24.80;50.52
67818;BME280;54614;47.576;7.524;2022-07-03T05:10:26;98844.56;;;24.75;50.95
67818;BME280;54614;47.576;7.524;2022-07-03T05:12:53;98849.13;;;24.74;50.87
67818;BME280;54614;47.576;7.524;2022-07-03T05:15:19;98851.59;;;24.76;51.02
67818;BME280;54614;47.576;7.524;2022-07-03T05:17:45;98845.19;;;24.77;50.73
67818;BME280;54614;47.576;7.524;2022-07-03T05:20:12;98855.13;;;24.77;50.82
67818;BME280;54614;47.576;7.524;2022-07-03T05:22:58;98850.97;;;24.74;51.34
67818;BME280;54614;47.576;7.524;2022-07-03T05:25:26;98849.75;;;24.77;50.83
67818;BME280;54614;47.576;7.524;2022-07-03T05:27:52;98843.53;;;24.76;51.18
67818;BME280;54614;47.576;7.524;2022-07-03T05:30:21;98852.22;;;24.78;51.21
67818;BME280;54614;47.576;7.524;2022-07-03T05:32:48;98844.34;;;24.77;51.09
67818;BME280;54614;47.576;7.524;2022-07-03T05:35:14;98843.53;;;24.76;51.01
67818;BME280;54614;47.576;7.524;2022-07-03T05:37:41;98847.88;;;24.77;50.95
67818;BME280;54614;47.576;7.524;2022-07-03T05:40:08;98848.91;;;24.76;51.08
67818;BME280;54614;47.576;7.524;2022-07-03T05:42:34;98841.03;;;24.74;51.11
67818;BME280;54614;47.576;7.524;2022-07-03T05:45:01;98842.91;;;24.74;51.30
67818;BME280;54614;47.576;7.524;2022-07-03T05:47:27;98842.69;;;24.75;51.03
67818;BME280;54614;47.576;7.524;2022-07-03T05:49:54;98846.22;;;24.89;50.78
67818;BME280;54614;47.576;7.524;2022-07-03T05:52:20;98841.66;;;24.83;51.09
67818;BME280;54614;47.576;7.524;2022-07-03T05:54:46;98844.34;;;24.83;51.00
67818;BME280;54614;47.576;7.524;2022-07-03T05:57:12;98843.53;;;24.83;51.14
67818;BME280;54614;47.576;7.524;2022-07-03T05:59:38;98844.56;;;24.82;51.00
67818;BME280;54614;47.576;7.524;2022-07-03T06:02:05;98847.47;;;24.80;50.91
67818;BME280;54614;47.576;7.524;2022-07-03T06:04:31;98848.72;;;24.84;51.05
67818;BME280;54614;47.576;7.524;2022-07-03T06:06:57;98857.59;;;24.85;51.25
67818;BME280;54614;47.576;7.524;2022-07-03T06:09:23;98847.03;;;24.83;50.85
67818;BME280;54614;47.576;7.524;2022-07-03T06:11:49;98846.22;;;24.83;51.03
67818;BME280;54614;47.576;7.524;2022-07-03T06:14:15;98851.41;;;24.84;50.96
67818;BME280;54614;47.576;7.524;2022-07-03T06:16:41;98853.47;;;24.82;51.00
67818;BME280;54614;47.576;7.524;2022-07-03T06:19:07;98846.00;;;24.71;49.52
67818;BME280;54614;47.576;7.524;2022-07-03T06:21:33;98845.75;;;24.26;49.89
67818;BME280;54614;47.576;7.524;2022-07-03T06:23:59;98840.28;;;24.13;50.00
67818;BME280;54614;47.576;7.524;2022-07-03T06:26:26;98841.13;;;24.14;50.43
67818;BME280;54614;47.576;7.524;2022-07-03T06:28:53;98834.03;;;23.93;50.62
67818;BME280;54614;47.576;7.524;2022-07-03T06:31:19;98832.28;;;24.26;50.65
67818;BME280;54614;47.576;7.524;2022-07-03T06:33:44;98834.09;;;22.96;52.71
67818;BME280;54614;47.576;7.524;2022-07-03T06:36:10;98828.53;;;23.60;51.50
67818;BME280;54614;47.576;7.524;2022-07-03T06:38:36;98828.81;;;23.78;50.53
67818;BME280;54614;47.576;7.524;2022-07-03T06:41:02;98823.69;;;23.90;49.88
67818;BME280;54614;47.576;7.524;2022-07-03T06:43:28;98822.03;;;23.89;49.95
67818;BME280;54614;47.576;7.524;2022-07-03T06:45:54;98820.91;;;23.63;50.67
67818;BME280;54614;47.576;7.524;2022-07-03T06:48:20;98810.63;;;23.39;51.77
67818;BME280;54614;47.576;7.524;2022-07-03T06:50:46;98817.41;;;23.69;50.46
67818;BME280;54614;47.576;7.524;2022-07-03T06:53:12;98822.13;;;23.26;51.76
67818;BME280;54614;47.576;7.524;2022-07-03T06:55:38;98815.44;;;23.50;51.08
67818;BME280;54614;47.576;7.524;2022-07-03T06:58:04;98818.44;;;23.68;51.07
67818;BME280;54614;47.576;7.524;2022-07-03T07:00:30;98824.09;;;23.87;49.90
67818;BME280;54614;47.576;7.524;2022-07-03T07:02:56;98823.53;;;24.11;49.93
67818;BME280;54614;47.576;7.524;2022-07-03T07:05:22;98818.78;;;24.13;50.13
67818;BME280;54614;47.576;7.524;2022-07-03T07:07:49;98813.09;;;24.56;49.66
67818;BME280;54614;47.576;7.524;2022-07-03T07:10:15;98805.03;;;24.69;49.22
67818;BME280;54614;47.576;7.524;2022-07-03T07:12:41;98812.06;;;24.77;48.96
67818;BME280;54614;47.576;7.524;2022-07-03T07:15:07;98816.84;;;24.81;49.13
67818;BME280;54614;47.576;7.524;2022-07-03T07:17:33;98814.34;;;24.80;49.14
67818;BME280;54614;47.576;7.524;2022-07-03T07:19:59;98807.91;;;24.94;49.12
67818;BME280;54614;47.576;7.524;2022-07-03T07:22:25;98807.75;;;25.02;49.40
67818;BME280;54614;47.576;7.524;2022-07-03T07:24:52;98803.81;;;24.98;49.48
67818;BME280;54614;47.576;7.524;2022-07-03T07:27:18;98801.94;;;24.92;50.28
67818;BME280;54614;47.576;7.524;2022-07-03T07:29:45;98805.88;;;24.76;50.77
67818;BME280;54614;47.576;7.524;2022-07-03T07:32:11;98800.28;;;24.71;51.17
67818;BME280;54614;47.576;7.524;2022-07-03T07:34:36;98794.91;;;24.64;51.43
67818;BME280;54614;47.576;7.524;2022-07-03T07:37:03;98799.25;;;24.72;51.25
67818;BME280;54614;47.576;7.524;2022-07-03T07:39:29;98806.28;;;24.80;51.71
67818;BME280;54614;47.576;7.524;2022-07-03T07:41:55;98807.72;;;24.82;51.59
67818;BME280;54614;47.576;7.524;2022-07-03T07:44:21;98802.97;;;24.84;51.84
67818;BME280;54614;47.576;7.524;2022-07-03T07:46:46;98801.53;;;24.75;52.38
67818;BME280;54614;47.576;7.524;2022-07-03T07:49:12;98806.69;;;24.70;52.38
67818;BME280;54614;47.576;7.524;2022-07-03T07:51:38;98803.59;;;24.47;54.01
67818;BME280;54614;47.576;7.524;2022-07-03T07:54:04;98801.28;;;24.37;54.72
67818;BME280;54614;47.576;7.524;2022-07-03T07:56:30;98798.81;;;24.35;54.90
67818;BME280;54614;47.576;7.524;2022-07-03T07:58:56;98799.44;;;24.37;54.70
67818;BME280;54614;47.576;7.524;2022-07-03T08:01:21;98798.00;;;24.41;54.79
67818;BME280;54614;47.576;7.524;2022-07-03T08:04:06;98796.75;;;24.44;54.36
67818;BME280;54614;47.576;7.524;2022-07-03T08:06:50;98790.97;;;24.47;54.26
67818;BME280;54614;47.576;7.524;2022-07-03T08:09:16;98790.34;;;24.52;54.54
67818;BME280;54614;47.576;7.524;2022-07-03T08:11:42;98787.03;;;24.56;54.32
67818;BME280;54614;47.576;7.524;2022-07-03T08:14:08;98783.53;;;24.56;53.98
67818;BME280;54614;47.576;7.524;2022-07-03T08:16:36;98787.66;;;24.58;54.02
67818;BME280;54614;47.576;7.524;2022-07-03T08:19:05;98790.16;;;24.60;53.99
67818;BME280;54614;47.576;7.524;2022-07-03T08:21:30;98792.00;;;24.66;54.07
67818;BME280;54614;47.576;7.524;2022-07-03T08:23:57;98789.94;;;24.74;54.06
67818;BME280;54614;47.576;7.524;2022-07-03T08:26:23;98793.66;;;24.73;54.37
67818;BME280;54614;47.576;7.524;2022-07-03T08:28:49;98793.44;;;24.75;54.24
67818;BME280;54614;47.576;7.524;2022-07-03T08:31:15;98792.41;;;24.69;54.09
67818;BME280;54614;47.576;7.524;2022-07-03T08:33:40;98784.97;;;24.71;54.29
67818;BME280;54614;47.576;7.524;2022-07-03T08:36:06;98788.06;;;24.75;54.26
67818;BME280;54614;47.576;7.524;2022-07-03T08:38:34;98791.59;;;24.75;54.11
67818;BME280;54614;47.576;7.524;2022-07-03T08:41:02;98788.06;;;24.82;53.81
67818;BME280;54614;47.576;7.524;2022-07-03T08:43:28;98786.00;;;24.84;53.58
67818;BME280;54614;47.576;7.524;2022-07-03T08:45:55;98789.72;;;24.83;53.26
67818;BME280;54614;47.576;7.524;2022-07-03T08:48:22;98783.91;;;24.86;53.69
67818;BME280;54614;47.576;7.524;2022-07-03T08:50:50;98784.34;;;24.89;53.94
67818;BME280;54614;47.576;7.524;2022-07-03T08:53:19;98779.97;;;24.95;53.51
67818;BME280;54614;47.576;7.524;2022-07-03T08:55:48;98776.66;;;24.93;53.46
67818;BME280;54614;47.576;7.524;2022-07-03T08:58:15;98778.53;;;24.92;53.46
67818;BME280;54614;47.576;7.524;2022-07-03T09:00:41;98782.06;;;24.93;52.94
67818;BME280;54614;47.576;7.524;2022-07-03T09:03:12;98774.81;;;24.93;53.43
67818;BME280;54614;47.576;7.524;2022-07-03T09:05:39;98765.28;;;24.91;53.60
67818;BME280;54614;47.576;7.524;2022-07-03T09:08:09;98770.28;;;25.00;54.19
67818;BME280;54614;47.576;7.524;2022-07-03T09:10:36;98768.00;;;25.04;53.97
67818;BME280;54614;47.576;7.524;2022-07-03T09:13:02;98767.56;;;25.07;53.74
67818;BME280;54614;47.576;7.524;2022-07-03T09:15:28;98769.22;;;25.08;54.15
67818;BME280;54614;47.576;7.524;2022-07-03T09:18:06;98765.28;;;25.11;54.29
67818;BME280;54614;47.576;7.524;2022-07-03T09:20:40;98760.50;;;25.13;54.09
67818;BME280;54614;47.576;7.524;2022-07-03T09:23:20;98761.75;;;25.17;53.98
67818;BME280;54614;47.576;7.524;2022-07-03T09:25:58;98765.66;;;25.21;53.69
67818;BME280;54614;47.576;7.524;2022-07-03T09:31:23;98755.31;;;25.18;53.82
67818;BME280;54614;47.576;7.524;2022-07-03T09:33:54;98751.59;;;25.19;53.69
67818;BME280;54614;47.576;7.524;2022-07-03T09:36:36;98756.56;;;25.22;53.62
67818;BME280;54614;47.576;7.524;2022-07-03T09:39:14;98753.84;;;25.28;53.82
67818;BME280;54614;47.576;7.524;2022-07-03T09:44:43;98751.59;;;25.77;51.34
67818;BME280;54614;47.576;7.524;2022-07-03T09:47:19;98744.38;;;25.70;51.42
67818;BME280;54614;47.576;7.524;2022-07-03T09:49:59;98747.28;;;25.62;51.27
67818;BME280;54614;47.576;7.524;2022-07-03T09:52:41;98744.00;;;25.54;51.50
67818;BME280;54614;47.576;7.524;2022-07-03T10:00:25;98742.38;;;25.46;51.30
67818;BME280;54614;47.576;7.524;2022-07-03T10:03:05;98739.69;;;25.46;51.05
67818;BME280;54614;47.576;7.524;2022-07-03T10:05:39;98739.06;;;25.44;51.29
67818;BME280;54614;47.576;7.524;2022-07-03T10:08:12;98737.44;;;25.43;51.01
67818;BME280;54614;47.576;7.524;2022-07-03T10:10:44;98735.97;;;25.41;51.37
67818;BME280;54614;47.576;7.524;2022-07-03T10:13:11;98735.97;;;25.41;51.08
67818;BME280;54614;47.576;7.524;2022-07-03T10:15:39;98744.06;;;25.41;51.27
67818;BME280;54614;47.576;7.524;2022-07-03T10:18:09;98743.25;;;25.40;51.31
67818;BME280;54614;47.576;7.524;2022-07-03T10:20:57;98735.38;;;25.38;51.12
67818;BME280;54614;47.576;7.524;2022-07-03T10:23:26;98732.91;;;25.37;51.34
67818;BME280;54614;47.576;7.524;2022-07-03T10:25:53;98733.50;;;25.39;51.11
67818;BME280;54614;47.576;7.524;2022-07-03T10:28:20;98729.16;;;25.38;51.13
67818;BME280;54614;47.576;7.524;2022-07-03T10:30:49;98724.59;;;25.38;50.88
67818;BME280;54614;47.576;7.524;2022-07-03T10:33:17;98727.06;;;25.40;51.14
67818;BME280;54614;47.576;7.524;2022-07-03T10:35:48;98716.75;;;25.37;51.22
67818;BME280;54614;47.576;7.524;2022-07-03T10:41:27;98717.13;;;25.41;50.92
67818;BME280;54614;47.576;7.524;2022-07-03T10:44:14;98727.91;;;25.41;50.92
67818;BME280;54614;47.576;7.524;2022-07-03T10:46:59;98728.31;;;25.44;50.79
67818;BME280;54614;47.576;7.524;2022-07-03T10:49:25;98732.66;;;25.45;50.90
67818;BME280;54614;47.576;7.524;2022-07-03T10:51:57;98718.78;;;25.42;51.06
67818;BME280;54614;47.576;7.524;2022-07-03T10:54:34;98720.66;;;25.41;51.10
67818;BME280;54614;47.576;7.524;2022-07-03T10:57:04;98725.22;;;25.41;51.10
67818;BME280;54614;47.576;7.524;2022-07-03T11:02:24;98713.84;;;25.38;51.03
67818;BME280;54614;47.576;7.524;2022-07-03T11:10:28;98714.66;;;25.39;51.17
67818;BME280;54614;47.576;7.524;2022-07-03T11:15:51;98700.38;;;25.38;50.82
67818;BME280;54614;47.576;7.524;2022-07-03T11:31:16;98687.13;;;25.37;51.01
67818;BME280;54614;47.576;7.524;2022-07-03T11:33:43;98690.03;;;25.35;51.00
67818;BME280;54614;47.576;7.524;2022-07-03T11:36:31;98686.50;;;25.35;50.89
67818;BME280;54614;47.576;7.524;2022-07-03T11:41:41;98680.28;;;25.34;51.03
67818;BME280;54614;47.576;7.524;2022-07-03T11:44:09;98684.03;;;25.33;51.17
67818;BME280;54614;47.576;7.524;2022-07-03T11:46:38;98675.13;;;25.33;51.07
67818;BME280;54614;47.576;7.524;2022-07-03T11:49:22;98673.03;;;25.35;51.23
67818;BME280;54614;47.576;7.524;2022-07-03T11:52:01;98667.03;;;25.33;50.93
67818;BME280;54614;47.576;7.524;2022-07-03T11:54:32;98668.91;;;25.32;51.31
67818;BME280;54614;47.576;7.524;2022-07-03T11:57:00;98669.75;;;25.33;51.00
67818;BME280;54614;47.576;7.524;2022-07-03T11:59:26;98670.34;;;25.35;51.04
67818;BME280;54614;47.576;7.524;2022-07-03T12:02:02;98672.44;;;25.33;51.05
67818;BME280;54614;47.576;7.524;2022-07-03T12:04:28;98669.53;;;25.34;51.26
67818;BME280;54614;47.576;7.524;2022-07-03T12:06:59;98665.19;;;25.33;51.24
67818;BME280;54614;47.576;7.524;2022-07-03T12:09:38;98666.63;;;25.36;51.01
67818;BME280;54614;47.576;7.524;2022-07-03T12:12:08;98658.97;;;25.33;51.11
67818;BME280;54614;47.576;7.524;2022-07-03T12:17:11;98657.31;;;25.32;51.28
67818;BME280;54614;47.576;7.524;2022-07-03T12:19:44;98649.03;;;25.33;51.13
67818;BME280;54614;47.576;7.524;2022-07-03T12:22:11;98653.78;;;25.31;51.23
67818;BME280;54614;47.576;7.524;2022-07-03T12:24:37;98640.94;;;25.33;51.23
67818;BME280;54614;47.576;7.524;2022-07-03T12:27:03;98637.44;;;25.33;50.99
67818;BME280;54614;47.576;7.524;2022-07-03T12:29:31;98644.69;;;25.32;51.17
67818;BME280;54614;47.576;7.524;2022-07-03T12:31:57;98642.81;;;25.33;51.14
67818;BME280;54614;47.576;7.524;2022-07-03T12:34:23;98636.59;;;25.32;51.05
67818;BME280;54614;47.576;7.524;2022-07-03T12:37:00;98629.34;;;25.33;51.08
67818;BME280;54614;47.576;7.524;2022-07-03T12:42:22;98631.81;;;25.34;50.87
67818;BME280;54614;47.576;7.524;2022-07-03T12:45:02;98628.31;;;25.34;50.98
67818;BME280;54614;47.576;7.524;2022-07-03T12:47:31;98623.97;;;25.33;51.08
67818;BME280;54614;47.576;7.524;2022-07-03T12:50:04;98616.94;;;25.32;50.94
67818;BME280;54614;47.576;7.524;2022-07-03T12:52:33;98618.59;;;25.33;51.28
67818;BME280;54614;47.576;7.524;2022-07-03T12:55:01;98615.06;;;25.32;51.28
67818;BME280;54614;47.576;7.524;2022-07-03T12:57:28;98614.25;;;25.32;51.11
67818;BME280;54614;47.576;7.524;2022-07-03T13:00:17;98617.53;;;25.34;50.87
67818;BME280;54614;47.576;7.524;2022-07-03T13:02:46;98618.78;;;25.31;51.09
67818;BME280;54614;47.576;7.524;2022-07-03T13:07:50;98614.25;;;25.32;51.21
67818;BME280;54614;47.576;7.524;2022-07-03T13:10:19;98606.16;;;25.32;51.20
67818;BME280;54614;47.576;7.524;2022-07-03T13:12:57;98611.53;;;25.32;51.25
67818;BME280;54614;47.576;7.524;2022-07-03T13:15:28;98609.69;;;25.32;51.16
67818;BME280;54614;47.576;7.524;2022-07-03T13:20:21;98599.13;;;25.31;51.23
67818;BME280;54614;47.576;7.524;2022-07-03T13:22:49;98604.28;;;25.32;50.88
67818;BME280;54614;47.576;7.524;2022-07-03T13:25:15;98597.03;;;25.33;50.99
67818;BME280;54614;47.576;7.524;2022-07-03T13:27:41;98599.53;;;25.34;51.18
67818;BME280;54614;47.576;7.524;2022-07-03T13:30:09;98599.31;;;25.36;50.99
67818;BME280;54614;47.576;7.524;2022-07-03T13:32:35;98601.16;;;25.35;50.99
67818;BME280;54614;47.576;7.524;2022-07-03T13:35:01;98600.34;;;25.35;51.08
67818;BME280;54614;47.576;7.524;2022-07-03T13:37:27;98601.78;;;25.37;50.77
67818;BME280;54614;47.576;7.524;2022-07-03T13:39:52;98600.34;;;25.35;50.95
67818;BME280;54614;47.576;7.524;2022-07-03T13:42:18;98599.72;;;25.33;51.11
67818;BME280;54614;47.576;7.524;2022-07-03T13:44:44;98596.00;;;25.34;51.13
67818;BME280;54614;47.576;7.524;2022-07-03T13:47:10;98594.78;;;25.30;51.31
67818;BME280;54614;47.576;7.524;2022-07-03T13:49:36;98600.03;;;25.18;52.28
67818;BME280;54614;47.576;7.524;2022-07-03T13:52:02;98594.81;;;25.23;51.88
67818;BME280;54614;47.576;7.524;2022-07-03T13:54:28;98595.25;;;25.20;52.36
67818;BME280;54614;47.576;7.524;2022-07-03T13:56:54;98586.38;;;25.13;52.34
67818;BME280;54614;47.576;7.524;2022-07-03T13:59:20;98584.69;;;25.19;52.76
67818;BME280;54614;47.576;7.524;2022-07-03T14:01:48;98585.13;;;25.16;52.57
67818;BME280;54614;47.576;7.524;2022-07-03T14:04:13;98588.44;;;25.18;52.49
67818;BME280;54614;47.576;7.524;2022-07-03T14:06:39;98586.56;;;25.18;52.46
67818;BME280;54614;47.576;7.524;2022-07-03T14:09:05;98584.69;;;25.19;52.50
67818;BME280;54614;47.576;7.524;2022-07-03T14:11:31;98584.09;;;25.17;52.48
67818;BME280;54614;47.576;7.524;2022-07-03T14:13:57;98582.00;;;25.19;52.67
67818;BME280;54614;47.576;7.524;2022-07-03T14:16:23;98583.03;;;25.18;52.37
67818;BME280;54614;47.576;7.524;2022-07-03T14:18:49;98587.19;;;25.20;52.30
67818;BME280;54614;47.576;7.524;2022-07-03T14:21:15;98580.53;;;25.23;52.54
67818;BME280;54614;47.576;7.524;2022-07-03T14:23:41;98587.56;;;25.24;52.50
67818;BME280;54614;47.576;7.524;2022-07-03T14:26:07;98588.19;;;25.26;52.40
67818;BME280;54614;47.576;7.524;2022-07-03T14:28:33;98583.16;;;25.36;51.66